Terminal Aerodrome Forecast
Issued by NWS

Home | Current Version | Previous Version | Text Only | Print | Product List | Glossary On
Versions: 1 2 3 4 5 6 7 8 9 10 11 12 13 14 15
498
FTUS43 KIWX 161723
TAFSBN
TAF
KSBN 161723Z 1618/1718 11006KT 1SM BR OVC005
     FM162000 11007KT 1SM -RA BR OVC004
     FM170000 12009KT 1/2SM -RA FG OVC003
     FM170600 16009KT 3/4SM RA BR OVC004 WS020/19040KT
     FM171200 23008KT 1/2SM -SHRA FG OVC003
     FM171600 24009KT 1 1/2SM BR OVC005=

USA.gov is the U.S. government's official web portal to all federal, state and local government web resources and services.